createdAt,value
2023-02-11T00:00:08.212Z,82
2023-02-11T00:01:08.552Z,82
2023-02-11T00:02:08.427Z,82
2023-02-11T00:05:07.897Z,82
2023-02-11T00:06:08.517Z,82
2023-02-11T00:07:08.084Z,82
2023-02-11T00:08:07.705Z,82
2023-02-11T00:09:08.481Z,82
2023-02-11T00:10:07.997Z,82
2023-02-11T00:11:08.748Z,82
2023-02-11T00:12:08.585Z,82
2023-02-11T00:13:08.110Z,82
2023-02-11T00:14:08.715Z,82
2023-02-11T00:16:07.965Z,82
2023-02-11T00:17:08.974Z,82
2023-02-11T00:18:08.367Z,82
2023-02-11T00:19:08.151Z,82
2023-02-11T00:20:12.046Z,82
2023-02-11T00:21:08.320Z,82
2023-02-11T00:22:07.923Z,82
2023-02-11T00:23:08.703Z,82
2023-02-11T00:24:08.059Z,82
2023-02-11T00:25:07.907Z,82
2023-02-11T00:26:08.546Z,82
2023-02-11T00:28:08.099Z,82
2023-02-11T00:30:08.205Z,82
2023-02-11T00:31:08.653Z,82
2023-02-11T00:32:07.996Z,82
2023-02-11T00:33:08.489Z,82
2023-02-11T00:34:08.094Z,82
2023-02-11T00:35:08.815Z,82
2023-02-11T00:37:07.880Z,82
2023-02-11T00:38:08.572Z,82
2023-02-11T00:39:08.045Z,82
2023-02-11T00:40:12.508Z,82
2023-02-11T00:41:08.286Z,82
2023-02-11T00:42:07.981Z,82
2023-02-11T00:43:08.543Z,82
2023-02-11T00:44:08.031Z,82
2023-02-11T00:45:07.806Z,82
2023-02-11T00:46:08.381Z,82
2023-02-11T00:47:08.468Z,83
2023-02-11T00:48:08.208Z,83
2023-02-11T00:49:07.766Z,83
2023-02-11T00:50:08.380Z,83
2023-02-11T00:51:08.118Z,83
2023-02-11T00:52:08.735Z,83
2023-02-11T00:53:08.248Z,83
2023-02-11T00:55:08.604Z,83
2023-02-11T00:56:08.329Z,83
2023-02-11T00:57:07.870Z,83
2023-02-11T00:58:08.540Z,83
2023-02-11T00:59:08.182Z,83
2023-02-11T01:00:07.936Z,83
2023-02-11T01:02:08.208Z,83
2023-02-11T01:03:08.818Z,83
2023-02-11T01:04:08.006Z,83
2023-02-11T01:05:08.915Z,83
2023-02-11T01:06:08.514Z,83
2023-02-11T01:07:08.110Z,83
2023-02-11T01:08:07.901Z,83
2023-02-11T01:09:08.568Z,83
2023-02-11T01:10:08.195Z,83
2023-02-11T01:11:08.575Z,83
2023-02-11T01:12:08.487Z,83
2023-02-11T01:13:08.221Z,83
2023-02-11T01:14:08.036Z,83
2023-02-11T01:15:08.688Z,83
2023-02-11T01:16:08.517Z,83
2023-02-11T01:17:07.697Z,83
2023-02-11T01:18:07.766Z,83
2023-02-11T01:19:08.396Z,83
2023-02-11T01:20:07.866Z,83
2023-02-11T01:21:08.487Z,83
2023-02-11T01:23:08.507Z,83
2023-02-11T01:24:07.959Z,83
2023-02-11T01:25:08.597Z,83
2023-02-11T01:26:08.060Z,83
2023-02-11T01:27:07.903Z,83
2023-02-11T01:28:08.766Z,83
2023-02-11T01:29:07.952Z,83
2023-02-11T01:30:08.492Z,83
2023-02-11T01:31:08.136Z,83
2023-02-11T01:32:08.765Z,83
2023-02-11T01:33:08.292Z,83
2023-02-11T01:34:07.897Z,83
2023-02-11T01:35:08.735Z,83
2023-02-11T01:36:08.237Z,83
2023-02-11T01:37:07.663Z,83
2023-02-11T01:38:08.514Z,83
2023-02-11T01:40:07.864Z,83
2023-02-11T01:41:08.696Z,83
2023-02-11T01:42:07.881Z,84
2023-02-11T01:43:07.905Z,84
2023-02-11T01:44:08.244Z,84
2023-02-11T01:45:07.916Z,83
2023-02-11T01:46:08.012Z,84
2023-02-11T01:47:08.729Z,84
2023-02-11T01:48:08.386Z,84
2023-02-11T01:50:08.621Z,84
2023-02-11T01:51:08.177Z,84
2023-02-11T01:52:07.954Z,84
2023-02-11T01:53:08.448Z,84
2023-02-11T01:54:08.024Z,84
2023-02-11T01:55:08.448Z,84
2023-02-11T01:56:07.943Z,84
2023-02-11T01:58:08.334Z,84
2023-02-11T01:59:07.983Z,84
2023-02-11T02:00:08.696Z,84
2023-02-11T02:03:08.768Z,84
2023-02-11T02:04:08.405Z,84
2023-02-11T02:05:07.961Z,84
2023-02-11T02:06:08.645Z,84
2023-02-11T02:07:08.233Z,84
2023-02-11T02:09:08.730Z,84
2023-02-11T02:10:08.406Z,84
2023-02-11T02:11:08.097Z,84
2023-02-11T02:12:08.752Z,84
2023-02-11T02:13:08.238Z,84
2023-02-11T02:14:07.786Z,84
2023-02-11T02:15:08.673Z,84
2023-02-11T02:16:11.943Z,84
2023-02-11T02:17:08.287Z,84
2023-02-11T02:18:07.984Z,84
2023-02-11T02:19:08.633Z,84
2023-02-11T02:20:08.386Z,84
2023-02-11T02:21:07.935Z,84
2023-02-11T02:22:08.371Z,84
2023-02-11T02:23:08.355Z,84
2023-02-11T02:24:07.922Z,84
2023-02-11T02:25:08.522Z,84
2023-02-11T02:26:08.092Z,84
2023-02-11T02:27:07.617Z,84
2023-02-11T02:28:08.624Z,84
2023-02-11T02:29:07.991Z,84
2023-02-11T02:30:08.797Z,84
2023-02-11T02:31:08.739Z,84
2023-02-11T02:32:07.926Z,84
2023-02-11T02:33:26.596Z,84
2023-02-11T02:34:08.560Z,84
2023-02-11T02:35:08.313Z,84
2023-02-11T02:37:08.694Z,84
2023-02-11T02:38:08.418Z,84
2023-02-11T02:39:08.189Z,84
2023-02-11T02:40:08.664Z,84
2023-02-11T02:41:08.226Z,84
2023-02-11T02:42:07.803Z,84
2023-02-11T02:43:08.511Z,85
2023-02-11T02:44:08.328Z,85
2023-02-11T02:45:07.788Z,85
2023-02-11T02:46:08.235Z,85
2023-02-11T02:47:07.960Z,85
2023-02-11T02:48:08.687Z,85
2023-02-11T02:49:08.055Z,85
2023-02-11T02:50:07.940Z,85
2023-02-11T02:51:08.433Z,85
2023-02-11T02:53:08.670Z,85
2023-02-11T02:54:08.247Z,85
2023-02-11T02:55:07.878Z,85
2023-02-11T02:56:08.435Z,85
2023-02-11T02:57:08.392Z,85
2023-02-11T02:58:07.749Z,85
2023-02-11T02:59:08.702Z,85
2023-02-11T03:00:08.419Z,85
2023-02-11T03:01:08.167Z,85
2023-02-11T03:02:08.459Z,85
2023-02-11T03:03:08.046Z,85
2023-02-11T03:04:09.007Z,85
2023-02-11T03:05:08.288Z,85
2023-02-11T03:06:07.968Z,85
2023-02-11T03:07:07.837Z,85
2023-02-11T03:08:08.432Z,85
2023-02-11T03:09:10.386Z,85
2023-02-11T03:10:08.749Z,85
2023-02-11T03:11:08.352Z,85
2023-02-11T03:12:07.986Z,85
2023-02-11T03:14:08.254Z,85
2023-02-11T03:15:07.878Z,85
2023-02-11T03:16:08.592Z,85
2023-02-11T03:17:07.889Z,85
2023-02-11T03:18:08.633Z,85
2023-02-11T03:19:08.359Z,85
2023-02-11T03:20:08.021Z,85
2023-02-11T03:22:08.302Z,85
2023-02-11T03:24:08.591Z,85
2023-02-11T03:25:08.185Z,85
2023-02-11T03:26:07.946Z,85
2023-02-11T03:28:08.390Z,85
2023-02-11T03:29:07.878Z,85
2023-02-11T03:30:08.584Z,85
2023-02-11T03:31:08.240Z,85
2023-02-11T03:32:09.215Z,85
2023-02-11T03:33:08.322Z,85
2023-02-11T03:34:07.955Z,85
2023-02-11T03:35:08.542Z,85
2023-02-11T03:36:08.084Z,85
2023-02-11T03:37:08.631Z,85
2023-02-11T03:38:08.297Z,85
2023-02-11T03:39:07.819Z,85
2023-02-11T03:40:08.465Z,85
2023-02-11T03:41:08.030Z,85
2023-02-11T03:42:08.835Z,85
2023-02-11T03:43:08.340Z,85
2023-02-11T03:44:07.925Z,85
2023-02-11T03:45:08.526Z,85
2023-02-11T03:46:09.000Z,85
2023-02-11T03:47:08.433Z,85
2023-02-11T03:48:08.133Z,85
2023-02-11T03:49:08.783Z,85
2023-02-11T03:50:08.387Z,85
2023-02-11T03:51:07.953Z,85
2023-02-11T03:52:08.565Z,85
2023-02-11T03:53:08.218Z,85
2023-02-11T03:54:08.838Z,85
2023-02-11T03:55:08.390Z,85
2023-02-11T03:56:08.094Z,85
2023-02-11T03:57:07.711Z,85
2023-02-11T03:59:07.964Z,85
2023-02-11T04:00:08.477Z,85
2023-02-11T04:01:09.034Z,85
2023-02-11T04:02:08.433Z,85
2023-02-11T04:03:08.469Z,85
2023-02-11T04:04:08.830Z,85
2023-02-11T04:05:08.256Z,85
2023-02-11T04:07:08.644Z,85
2023-02-11T04:08:08.297Z,85
2023-02-11T04:09:07.689Z,85
2023-02-11T04:11:08.069Z,85
2023-02-11T04:12:08.630Z,85
2023-02-11T04:13:08.361Z,85
2023-02-11T04:14:08.153Z,85
2023-02-11T04:15:07.839Z,85
2023-02-11T04:16:08.550Z,85
2023-02-11T04:17:07.864Z,85
2023-02-11T04:18:08.477Z,85
2023-02-11T04:19:08.212Z,85
2023-02-11T04:21:08.283Z,85
2023-02-11T04:24:08.267Z,85
2023-02-11T04:25:07.945Z,85
2023-02-11T04:26:08.648Z,85
2023-02-11T04:27:07.979Z,85
2023-02-11T04:30:08.061Z,85
2023-02-11T04:31:08.813Z,85
2023-02-11T04:32:08.412Z,85
2023-02-11T04:34:08.447Z,85
2023-02-11T04:36:07.931Z,85
2023-02-11T04:37:08.502Z,85
2023-02-11T04:38:08.168Z,85
2023-02-11T04:39:07.688Z,85
2023-02-11T04:40:08.760Z,85
2023-02-11T04:41:08.107Z,85
2023-02-11T04:42:08.661Z,85
2023-02-11T04:43:08.318Z,85
2023-02-11T04:44:07.975Z,85
2023-02-11T04:45:08.664Z,85
2023-02-11T04:46:08.603Z,85
2023-02-11T04:47:07.999Z,85
2023-02-11T04:48:08.768Z,85
2023-02-11T04:49:08.429Z,85
2023-02-11T04:50:07.970Z,85
2023-02-11T04:51:08.437Z,85
2023-02-11T04:52:08.054Z,85
2023-02-11T04:53:07.745Z,85
2023-02-11T04:54:08.637Z,85
2023-02-11T04:55:08.205Z,85
2023-02-11T04:56:07.873Z,85
2023-02-11T04:57:08.696Z,85
2023-02-11T04:58:08.349Z,85
2023-02-11T04:59:07.939Z,85
2023-02-11T05:00:08.487Z,85
2023-02-11T05:01:08.050Z,85
2023-02-11T05:02:07.765Z,85
2023-02-11T05:03:08.530Z,85
2023-02-11T05:04:08.390Z,85
2023-02-11T05:05:08.693Z,85
2023-02-11T05:06:08.322Z,85
2023-02-11T05:09:08.299Z,85
2023-02-11T05:10:08.162Z,85
2023-02-11T05:11:08.635Z,85
2023-02-11T05:13:07.893Z,85
2023-02-11T05:14:08.423Z,85
2023-02-11T05:15:08.047Z,85
2023-02-11T05:16:08.222Z,85
2023-02-11T05:17:08.144Z,85
2023-02-11T05:18:08.505Z,85
2023-02-11T05:19:08.268Z,85
2023-02-11T05:20:07.859Z,85
2023-02-11T05:21:08.405Z,85
2023-02-11T05:22:09.878Z,85
2023-02-11T05:23:08.402Z,85
2023-02-11T05:24:08.158Z,85
2023-02-11T05:25:07.816Z,85
2023-02-11T05:26:08.562Z,85
2023-02-11T05:27:08.190Z,85
2023-02-11T05:28:08.020Z,85
2023-02-11T05:29:08.431Z,85
2023-02-11T05:30:08.209Z,85
2023-02-11T05:31:08.538Z,85
2023-02-11T05:32:07.795Z,85
2023-02-11T05:33:08.353Z,85
2023-02-11T05:34:08.062Z,85
2023-02-11T05:35:08.618Z,85
2023-02-11T05:36:08.454Z,85
2023-02-11T05:37:08.016Z,85
2023-02-11T05:39:08.123Z,85
2023-02-11T05:41:08.491Z,85
2023-02-11T05:42:08.054Z,85
2023-02-11T05:43:07.820Z,85
2023-02-11T05:44:08.522Z,85
2023-02-11T05:45:08.246Z,85
2023-02-11T05:46:08.368Z,85
2023-02-11T05:47:08.982Z,85
2023-02-11T05:48:08.527Z,85
2023-02-11T05:49:08.100Z,85
2023-02-11T05:50:08.762Z,85
2023-02-11T05:51:08.436Z,85
2023-02-11T05:52:07.969Z,85
2023-02-11T05:54:08.277Z,85
2023-02-11T05:55:07.958Z,85
2023-02-11T05:56:08.516Z,85
2023-02-11T05:57:07.993Z,85
2023-02-11T05:58:07.854Z,85
2023-02-11T05:59:08.483Z,85
2023-02-11T06:00:08.189Z,85
2023-02-11T06:01:07.774Z,85
2023-02-11T06:02:08.286Z,85
2023-02-11T06:03:07.863Z,85
2023-02-11T06:04:08.702Z,85
2023-02-11T06:05:08.332Z,85
2023-02-11T06:06:08.001Z,85
2023-02-11T06:07:08.530Z,85
2023-02-11T06:09:07.794Z,85
2023-02-11T06:10:08.472Z,85
2023-02-11T06:11:08.229Z,85
2023-02-11T06:12:08.688Z,85
2023-02-11T06:13:08.371Z,85
2023-02-11T06:14:08.118Z,85
2023-02-11T06:15:08.731Z,85
2023-02-11T06:16:08.025Z,85
2023-02-11T06:17:08.474Z,85
2023-02-11T06:18:08.022Z,85
2023-02-11T06:19:07.779Z,85
2023-02-11T06:22:08.522Z,85
2023-02-11T06:23:08.352Z,85
2023-02-11T06:24:07.806Z,85
2023-02-11T06:25:08.864Z,85
2023-02-11T06:26:08.110Z,85
2023-02-11T06:27:08.028Z,85
2023-02-11T06:28:08.747Z,85
2023-02-11T06:29:07.928Z,85
2023-02-11T06:30:08.868Z,85
2023-02-11T06:33:08.016Z,85
2023-02-11T06:35:10.028Z,85
2023-02-11T06:36:07.795Z,85
2023-02-11T06:37:08.402Z,85
2023-02-11T06:38:08.016Z,85
2023-02-11T06:39:08.626Z,85
2023-02-11T06:40:08.255Z,85
2023-02-11T06:41:07.815Z,85
2023-02-11T06:42:10.582Z,85
2023-02-11T06:45:08.739Z,85
2023-02-11T06:48:07.839Z,85
2023-02-11T06:49:08.593Z,85
2023-02-11T06:50:08.177Z,85
2023-02-11T06:51:08.652Z,85
2023-02-11T06:53:07.996Z,85
2023-02-11T06:54:08.544Z,85
2023-02-11T06:55:08.437Z,85
2023-02-11T06:56:07.921Z,85
2023-02-11T06:57:08.566Z,85
2023-02-11T06:58:08.173Z,85
2023-02-11T06:59:08.657Z,85
2023-02-11T07:00:09.860Z,85
2023-02-11T07:01:08.324Z,85
2023-02-11T07:02:08.345Z,85
2023-02-11T07:03:08.055Z,85
2023-02-11T07:04:08.541Z,85
2023-02-11T07:05:08.051Z,85
2023-02-11T07:06:07.897Z,85
2023-02-11T07:07:08.354Z,85
2023-02-11T07:08:07.863Z,85
2023-02-11T07:09:08.790Z,85
2023-02-11T07:10:08.127Z,85
2023-02-11T07:11:07.948Z,85
2023-02-11T07:12:08.751Z,85
2023-02-11T07:13:08.163Z,85
2023-02-11T07:14:07.878Z,84
2023-02-11T07:16:07.956Z,84
2023-02-11T07:17:08.364Z,84
2023-02-11T07:18:08.147Z,84
2023-02-11T07:19:08.585Z,84
2023-02-11T07:20:08.488Z,84
2023-02-11T07:21:07.989Z,84
2023-02-11T07:22:08.592Z,84
2023-02-11T07:23:08.250Z,84
2023-02-11T07:24:10.863Z,84
2023-02-11T07:25:08.478Z,84
2023-02-11T07:26:08.134Z,84
2023-02-11T07:27:07.540Z,84
2023-02-11T07:28:08.563Z,84
2023-02-11T07:29:08.163Z,84
2023-02-11T07:31:08.723Z,84
2023-02-11T07:32:08.071Z,84
2023-02-11T07:33:08.434Z,84
2023-02-11T07:34:08.212Z,84
2023-02-11T07:35:09.021Z,85
2023-02-11T07:36:08.271Z,85
2023-02-11T07:37:07.874Z,85
2023-02-11T07:38:08.585Z,85
2023-02-11T07:39:08.272Z,85
2023-02-11T07:40:07.837Z,85
2023-02-11T07:41:08.613Z,85
2023-02-11T07:43:08.101Z,85
2023-02-11T07:44:08.673Z,85
2023-02-11T07:45:08.342Z,85
2023-02-11T07:46:07.995Z,85
2023-02-11T07:47:09.087Z,85
2023-02-11T07:48:08.276Z,85
2023-02-11T07:49:07.716Z,85
2023-02-11T07:50:08.775Z,85
2023-02-11T07:51:08.279Z,85
2023-02-11T07:52:07.862Z,85
2023-02-11T07:53:08.636Z,85
2023-02-11T07:54:08.337Z,85
2023-02-11T07:55:10.936Z,85
2023-02-11T07:56:08.359Z,85
2023-02-11T07:57:08.085Z,85
2023-02-11T08:00:07.920Z,85
2023-02-11T08:01:08.695Z,85
2023-02-11T08:02:08.192Z,85
2023-02-11T08:03:08.842Z,85
2023-02-11T08:04:08.491Z,85
2023-02-11T08:06:08.631Z,84
2023-02-11T08:07:08.163Z,84
2023-02-11T08:08:07.910Z,84
2023-02-11T08:09:08.582Z,84
2023-02-11T08:10:08.168Z,84
2023-02-11T08:11:07.854Z,84
2023-02-11T08:12:08.529Z,84
2023-02-11T08:13:08.172Z,84
2023-02-11T08:14:07.713Z,84
2023-02-11T08:15:08.536Z,84
2023-02-11T08:16:08.299Z,84
2023-02-11T08:18:08.360Z,84
2023-02-11T08:19:07.925Z,84
2023-02-11T08:20:08.762Z,84
2023-02-11T08:21:08.320Z,84
2023-02-11T08:22:07.695Z,84
2023-02-11T08:23:08.206Z,84
2023-02-11T08:24:07.862Z,84
2023-02-11T08:25:08.670Z,84
2023-02-11T08:26:08.219Z,84
2023-02-11T08:27:07.845Z,84
2023-02-11T08:28:08.566Z,84
2023-02-11T08:29:07.968Z,84
2023-02-11T08:30:08.874Z,84
2023-02-11T08:31:08.437Z,84
2023-02-11T08:32:09.132Z,84
2023-02-11T08:33:08.270Z,84
2023-02-11T08:34:07.983Z,84
2023-02-11T08:35:08.706Z,84
2023-02-11T08:36:08.691Z,84
2023-02-11T08:37:08.427Z,84
2023-02-11T08:38:08.045Z,83
2023-02-11T08:39:24.994Z,83
2023-02-11T08:40:08.331Z,83
2023-02-11T08:41:08.042Z,83
2023-02-11T08:42:08.549Z,83
2023-02-11T08:43:11.129Z,83
2023-02-11T08:45:08.444Z,83
2023-02-11T08:46:09.048Z,83
2023-02-11T08:49:08.227Z,83
2023-02-11T08:50:07.734Z,83
2023-02-11T08:51:08.516Z,83
2023-02-11T08:52:08.133Z,83
2023-02-11T08:54:08.278Z,83
2023-02-11T08:55:07.950Z,83
2023-02-11T08:56:08.576Z,83
2023-02-11T08:57:08.386Z,83
2023-02-11T08:58:07.950Z,83
2023-02-11T08:59:08.503Z,83
2023-02-11T09:00:08.109Z,83
2023-02-11T09:01:08.694Z,83
2023-02-11T09:02:08.400Z,83
2023-02-11T09:03:07.983Z,82
2023-02-11T09:04:07.870Z,82
2023-02-11T09:05:08.324Z,82
2023-02-11T09:06:07.882Z,82
2023-02-11T09:07:08.616Z,82
2023-02-11T09:08:08.293Z,82
2023-02-11T09:09:07.678Z,82
2023-02-11T09:10:08.420Z,82
2023-02-11T09:11:08.084Z,82
2023-02-11T09:12:08.786Z,81
2023-02-11T09:13:08.373Z,81
2023-02-11T09:14:07.942Z,81
2023-02-11T09:15:08.666Z,81
2023-02-11T09:17:08.311Z,81
2023-02-11T09:18:08.516Z,81
2023-02-11T09:19:08.381Z,81
2023-02-11T09:20:10.682Z,81
2023-02-11T09:21:08.758Z,81
2023-02-11T09:23:07.929Z,81
2023-02-11T09:24:08.630Z,80
2023-02-11T09:25:08.331Z,80
2023-02-11T09:26:11.181Z,80
2023-02-11T09:27:08.722Z,80
2023-02-11T09:28:08.473Z,80
2023-02-11T09:30:08.607Z,80
2023-02-11T09:31:08.841Z,80
2023-02-11T09:32:12.012Z,80
2023-02-11T09:33:08.432Z,80
2023-02-11T09:34:08.126Z,80
2023-02-11T09:35:08.711Z,80
2023-02-11T09:37:08.106Z,80
2023-02-11T09:38:07.889Z,80
2023-02-11T09:39:08.504Z,80
2023-02-11T09:41:08.617Z,80
2023-02-11T09:42:08.244Z,80
2023-02-11T09:43:10.440Z,80
2023-02-11T09:44:08.428Z,80
2023-02-11T09:45:08.067Z,80
2023-02-11T09:46:08.516Z,80
2023-02-11T09:47:07.952Z,80
2023-02-11T09:48:12.139Z,80
2023-02-11T09:49:08.223Z,80
2023-02-11T09:50:08.033Z,80
2023-02-11T09:51:08.846Z,79
2023-02-11T09:52:08.340Z,79
2023-02-11T09:53:07.974Z,79
2023-02-11T09:54:11.682Z,79
2023-02-11T09:55:08.234Z,79
2023-02-11T09:56:08.115Z,79
2023-02-11T09:57:14.323Z,79
2023-02-11T09:58:08.566Z,78
2023-02-11T09:59:08.189Z,78
2023-02-11T10:00:07.660Z,78
2023-02-11T10:01:08.203Z,78
2023-02-11T10:02:08.672Z,78
2023-02-11T10:05:08.667Z,78
2023-02-11T10:06:08.184Z,78
2023-02-11T10:07:07.783Z,78
2023-02-11T10:08:08.386Z,78
2023-02-11T10:09:08.261Z,78
2023-02-11T10:10:07.835Z,78
2023-02-11T10:11:08.401Z,77
2023-02-11T10:12:08.009Z,77
2023-02-11T10:14:07.839Z,77
2023-02-11T10:15:08.512Z,77
2023-02-11T10:16:08.503Z,77
2023-02-11T10:18:08.554Z,77
2023-02-11T10:19:08.105Z,76
2023-02-11T10:20:07.984Z,76
2023-02-11T10:21:08.728Z,76
2023-02-11T10:22:08.018Z,76
2023-02-11T10:23:07.860Z,76
2023-02-11T10:24:08.514Z,76
2023-02-11T10:25:07.774Z,76
2023-02-11T10:26:08.640Z,76
2023-02-11T10:27:08.372Z,75
2023-02-11T10:28:08.228Z,75
2023-02-11T10:29:08.661Z,75
2023-02-11T10:30:08.498Z,75
2023-02-11T10:31:09.592Z,75
2023-02-11T10:32:08.782Z,75
2023-02-11T10:33:08.300Z,75
2023-02-11T10:34:07.942Z,75
2023-02-11T10:35:08.427Z,75
2023-02-11T10:36:08.266Z,75
2023-02-11T10:37:07.665Z,75
2023-02-11T10:38:08.530Z,75
2023-02-11T10:39:08.048Z,75
2023-02-11T10:40:08.744Z,74
2023-02-11T10:41:08.224Z,74
2023-02-11T10:42:07.898Z,74
2023-02-11T10:43:08.314Z,74
2023-02-11T10:45:08.747Z,74
2023-02-11T10:46:08.278Z,74
2023-02-11T10:48:08.052Z,74
2023-02-11T10:50:08.336Z,74
2023-02-11T10:51:07.897Z,74
2023-02-11T10:52:08.677Z,74
2023-02-11T10:53:08.427Z,74
2023-02-11T10:55:08.614Z,74
2023-02-11T10:56:07.952Z,74
2023-02-11T10:57:08.605Z,74
2023-02-11T10:58:08.519Z,73
2023-02-11T10:59:08.009Z,73
2023-02-11T11:00:08.707Z,74
2023-02-11T11:01:27.786Z,74
2023-02-11T11:04:08.333Z,73
2023-02-11T11:05:08.219Z,73
2023-02-11T11:06:08.408Z,73
2023-02-11T11:07:08.235Z,73
2023-02-11T11:08:07.910Z,73
2023-02-11T11:09:08.372Z,73
2023-02-11T11:10:08.024Z,73
2023-02-11T11:11:08.681Z,73
2023-02-11T11:12:08.148Z,73
2023-02-11T11:13:07.978Z,73
2023-02-11T11:15:08.333Z,73
2023-02-11T11:16:08.372Z,73
2023-02-11T11:17:08.583Z,73
2023-02-11T11:18:27.768Z,73
2023-02-11T11:19:07.858Z,73
2023-02-11T11:20:08.506Z,73
2023-02-11T11:21:08.055Z,73
2023-02-11T11:22:08.784Z,73
2023-02-11T11:23:08.353Z,73
2023-02-11T11:24:08.060Z,73
2023-02-11T11:25:08.538Z,72
2023-02-11T11:27:07.963Z,72
2023-02-11T11:28:08.396Z,72
2023-02-11T11:29:07.983Z,72
2023-02-11T11:30:08.632Z,72
2023-02-11T11:32:08.206Z,72
2023-02-11T11:33:08.532Z,72
2023-02-11T11:34:08.140Z,72
2023-02-11T11:35:08.752Z,72
2023-02-11T11:36:08.354Z,72
2023-02-11T11:37:08.110Z,72
2023-02-11T11:39:08.394Z,72
2023-02-11T11:40:08.019Z,72
2023-02-11T11:41:08.589Z,72
2023-02-11T11:42:08.302Z,72
2023-02-11T11:43:07.958Z,72
2023-02-11T11:44:08.477Z,72
2023-02-11T11:45:08.240Z,72
2023-02-11T11:46:08.552Z,72
2023-02-11T11:47:08.098Z,72
2023-02-11T11:48:07.983Z,71
2023-02-11T11:51:07.747Z,71
2023-02-11T11:52:08.363Z,71
2023-02-11T11:53:07.927Z,71
2023-02-11T11:54:08.741Z,71
2023-02-11T11:55:08.306Z,71
2023-02-11T11:56:07.867Z,71
2023-02-11T11:57:08.593Z,71
2023-02-11T11:58:08.194Z,71
2023-02-11T11:59:08.080Z,71
2023-02-11T12:00:08.697Z,71
2023-02-11T12:01:08.467Z,71
2023-02-11T12:02:10.609Z,71
2023-02-11T12:03:08.740Z,71
2023-02-11T12:04:08.226Z,71
2023-02-11T12:05:07.750Z,71
2023-02-11T12:06:08.491Z,71
2023-02-11T12:07:08.226Z,71
2023-02-11T12:08:08.590Z,71
2023-02-11T12:09:08.270Z,71
2023-02-11T12:10:08.062Z,71
2023-02-11T12:11:08.662Z,71
2023-02-11T12:12:08.204Z,71
2023-02-11T12:13:07.758Z,71
2023-02-11T12:14:08.291Z,71
2023-02-11T12:15:07.967Z,71
2023-02-11T12:16:08.461Z,71
2023-02-11T12:18:08.299Z,71
2023-02-11T12:21:08.390Z,71
2023-02-11T12:22:07.949Z,71
2023-02-11T12:24:08.341Z,71
2023-02-11T12:25:07.705Z,71
2023-02-11T12:26:08.228Z,71
2023-02-11T12:27:07.950Z,71
2023-02-11T12:28:08.724Z,71
2023-02-11T12:29:08.146Z,71
2023-02-11T12:33:08.410Z,71
2023-02-11T12:34:08.069Z,71
2023-02-11T12:35:07.828Z,71
2023-02-11T12:36:08.386Z,71
2023-02-11T12:37:12.055Z,71
2023-02-11T12:38:08.587Z,71
2023-02-11T12:39:08.253Z,71
2023-02-11T12:40:07.876Z,70
2023-02-11T12:41:08.410Z,70
2023-02-11T12:42:08.156Z,70
2023-02-11T12:43:09.112Z,70
2023-02-11T12:44:08.421Z,70
2023-02-11T12:45:08.143Z,71
2023-02-11T12:46:08.247Z,70
2023-02-11T12:47:08.733Z,70
2023-02-11T12:48:08.351Z,70
2023-02-11T12:49:07.987Z,70
2023-02-11T12:50:08.701Z,70
2023-02-11T12:52:08.027Z,70
2023-02-11T12:53:08.557Z,70
2023-02-11T12:54:10.993Z,70
2023-02-11T12:55:07.908Z,70
2023-02-11T12:56:08.668Z,70
2023-02-11T12:57:08.135Z,70
2023-02-11T12:58:08.549Z,70
2023-02-11T12:59:08.427Z,70
2023-02-11T13:00:08.005Z,70
2023-02-11T13:01:08.290Z,70
2023-02-11T13:02:08.855Z,70
2023-02-11T13:03:08.305Z,69
2023-02-11T13:04:07.729Z,69
2023-02-11T13:05:08.581Z,69
2023-02-11T13:06:08.237Z,69
2023-02-11T13:07:07.701Z,69
2023-02-11T13:08:08.420Z,69
2023-02-11T13:09:08.381Z,69
2023-02-11T13:10:07.754Z,69
2023-02-11T13:11:08.272Z,69
2023-02-11T13:12:07.977Z,69
2023-02-11T13:13:08.631Z,69
2023-02-11T13:14:08.406Z,69
2023-02-11T13:15:08.087Z,68
2023-02-11T13:16:08.100Z,68
2023-02-11T13:18:08.296Z,68
2023-02-11T13:19:08.165Z,68
2023-02-11T13:20:08.664Z,68
2023-02-11T13:21:08.139Z,68
2023-02-11T13:22:07.941Z,68
2023-02-11T13:24:07.849Z,68
2023-02-11T13:25:08.724Z,68
2023-02-11T13:26:08.235Z,68
2023-02-11T13:27:07.970Z,68
2023-02-11T13:28:08.551Z,68
2023-02-11T13:29:08.418Z,68
2023-02-11T13:30:10.654Z,68
2023-02-11T13:31:08.243Z,68
2023-02-11T13:32:08.438Z,68
2023-02-11T13:33:07.972Z,68
2023-02-11T13:34:08.627Z,68
2023-02-11T13:35:08.386Z,68
2023-02-11T13:36:10.944Z,68
2023-02-11T13:37:08.474Z,68
2023-02-11T13:39:07.896Z,68
2023-02-11T13:40:08.317Z,68
2023-02-11T13:41:07.960Z,68
2023-02-11T13:42:08.531Z,68
2023-02-11T13:43:08.268Z,68
2023-02-11T13:44:07.714Z,68
2023-02-11T13:45:08.449Z,68
2023-02-11T13:46:08.591Z,68
2023-02-11T13:47:08.720Z,68
2023-02-11T13:48:08.027Z,68
2023-02-11T13:49:08.017Z,68
2023-02-11T13:50:08.639Z,68
2023-02-11T13:51:08.275Z,68
2023-02-11T13:52:07.751Z,68
2023-02-11T13:53:08.483Z,68
2023-02-11T13:54:08.050Z,68
2023-02-11T13:55:08.587Z,68
2023-02-11T13:56:08.302Z,68
2023-02-11T13:57:07.985Z,68
2023-02-11T13:58:08.557Z,68
2023-02-11T14:00:08.087Z,68
2023-02-11T14:01:08.212Z,68
2023-02-11T14:03:08.273Z,68
2023-02-11T14:04:07.933Z,68
2023-02-11T14:05:08.518Z,67
2023-02-11T14:06:08.011Z,67
2023-02-11T14:07:08.773Z,68
2023-02-11T14:08:08.357Z,67
2023-02-11T14:09:07.902Z,67
2023-02-11T14:10:07.814Z,67
2023-02-11T14:11:08.471Z,68
2023-02-11T14:12:08.218Z,68
2023-02-11T14:13:07.872Z,68
2023-02-11T14:15:12.212Z,68
2023-02-11T14:16:08.056Z,68
2023-02-11T14:17:08.024Z,68
2023-02-11T14:19:07.924Z,67
2023-02-11T14:20:08.563Z,67
2023-02-11T14:21:09.779Z,67
2023-02-11T14:22:07.781Z,67
2023-02-11T14:23:08.400Z,67
2023-02-11T14:24:08.193Z,67
2023-02-11T14:25:08.921Z,67
2023-02-11T14:26:08.548Z,67
2023-02-11T14:27:08.052Z,67
2023-02-11T14:28:09.044Z,67
2023-02-11T14:29:08.200Z,67
2023-02-11T14:30:08.022Z,67
2023-02-11T14:31:08.636Z,67
2023-02-11T14:32:12.283Z,68
2023-02-11T14:33:08.306Z,68
2023-02-11T14:35:08.462Z,68
2023-02-11T14:36:08.208Z,68
2023-02-11T14:39:08.049Z,68
2023-02-11T14:40:08.343Z,68
2023-02-11T14:42:08.775Z,68
2023-02-11T14:43:09.098Z,68
2023-02-11T14:44:08.063Z,68
2023-02-11T14:45:08.794Z,68
2023-02-11T14:46:08.561Z,68
2023-02-11T14:47:07.937Z,68
2023-02-11T14:48:08.696Z,68
2023-02-11T14:50:10.066Z,68
2023-02-11T14:52:08.050Z,68
2023-02-11T14:53:08.887Z,68
2023-02-11T14:55:08.484Z,68
2023-02-11T14:57:07.977Z,68
2023-02-11T14:58:07.762Z,68
2023-02-11T15:00:08.667Z,68
2023-02-11T15:01:08.873Z,68
2023-02-11T15:02:10.253Z,68
2023-02-11T15:03:08.625Z,68
2023-02-11T15:04:08.216Z,68
2023-02-11T15:05:07.952Z,68
2023-02-11T15:06:08.475Z,68
2023-02-11T15:07:08.307Z,68
2023-02-11T15:08:10.127Z,68
2023-02-11T15:09:08.581Z,69
2023-02-11T15:10:08.467Z,68
2023-02-11T15:11:07.916Z,68
2023-02-11T15:13:08.113Z,68
2023-02-11T15:14:08.803Z,68
2023-02-11T15:15:08.249Z,68
2023-02-11T15:16:08.189Z,68
2023-02-11T15:17:08.666Z,68
2023-02-11T15:18:08.351Z,68
2023-02-11T15:19:07.966Z,68
2023-02-11T15:20:08.789Z,68
2023-02-11T15:21:08.227Z,68
2023-02-11T15:22:08.040Z,69
2023-02-11T15:23:08.664Z,69
2023-02-11T15:24:08.270Z,69
2023-02-11T15:25:07.966Z,69
2023-02-11T15:26:08.559Z,69
2023-02-11T15:27:08.182Z,69
2023-02-11T15:28:08.700Z,69
2023-02-11T15:29:08.314Z,69
2023-02-11T15:30:07.950Z,69
2023-02-11T15:31:08.996Z,69
2023-02-11T15:32:08.683Z,69
2023-02-11T15:34:08.497Z,69
2023-02-11T15:35:08.200Z,69
2023-02-11T15:36:08.814Z,69
2023-02-11T15:37:08.621Z,69
2023-02-11T15:38:08.186Z,69
2023-02-11T15:39:08.792Z,69
2023-02-11T15:40:08.309Z,69
2023-02-11T15:41:08.033Z,69
2023-02-11T15:42:08.701Z,69
2023-02-11T15:43:08.280Z,69
2023-02-11T15:45:08.273Z,69
2023-02-11T15:47:07.835Z,69
2023-02-11T15:48:08.545Z,69
2023-02-11T15:49:08.152Z,69
2023-02-11T15:50:07.800Z,70
2023-02-11T15:51:08.890Z,70
2023-02-11T15:52:08.106Z,70
2023-02-11T15:53:08.672Z,70
2023-02-11T15:54:08.382Z,70
2023-02-11T15:55:08.192Z,70
2023-02-11T15:56:08.131Z,70
2023-02-11T15:59:07.876Z,70
2023-02-11T16:00:08.490Z,70
2023-02-11T16:01:08.749Z,70
2023-02-11T16:02:08.513Z,70
2023-02-11T16:03:07.862Z,70
2023-02-11T16:04:08.753Z,70
2023-02-11T16:05:08.186Z,70